Weather at Kagoshima Airport

Public forecast

Using degrees Celsius for public forecast. Weather courtesy of forecast.io.

Current aviation weather report (METAR) for Kagoshima Airport

Report is more than 6 hours old.

2022/11/14 12:00 (retrieved 2 years ago)

RJFK 141200Z 33003KT 9999 FEW030 BKN050 15/11 Q1015 RMK 1CU030 7SC050 A2997

Aviation forecast (TAF) for Kagoshima Airport

Forecast is more than 12 hours old.

2023/02/22 18:29 (retrieved 1 year ago)

TAF RJFK 221705Z 2218/2400 35006KT 8000 -SHRA FEW008 SCT015 BKN020 TEMPO 2218/2222 4000 -SHRA BR TEMPO 2318/2400 4000 -SHRA BR